sensor_id;sensor_type;location;lat;lon;timestamp;P1;durP1;ratioP1;P2;durP2;ratioP2
18443;SDS011;9350;53.176;8.194;2023-04-25T00:02:10;21.88;;;3.47;;
18443;SDS011;9350;53.176;8.194;2023-04-25T00:04:37;24.08;;;4.07;;
18443;SDS011;9350;53.176;8.194;2023-04-25T00:07:05;26.80;;;4.35;;
18443;SDS011;9350;53.176;8.194;2023-04-25T00:09:32;22.77;;;3.15;;
18443;SDS011;9350;53.176;8.194;2023-04-25T00:11:58;17.02;;;3.40;;
18443;SDS011;9350;53.176;8.194;2023-04-25T00:14:26;26.63;;;4.20;;
18443;SDS011;9350;53.176;8.194;2023-04-25T00:16:53;21.13;;;3.50;;
18443;SDS011;9350;53.176;8.194;2023-04-25T00:19:20;25.27;;;3.38;;
18443;SDS011;9350;53.176;8.194;2023-04-25T00:21:47;21.77;;;3.47;;
18443;SDS011;9350;53.176;8.194;2023-04-25T00:24:15;21.27;;;4.05;;
18443;SDS011;9350;53.176;8.194;2023-04-25T00:26:42;21.60;;;4.28;;
18443;SDS011;9350;53.176;8.194;2023-04-25T00:29:08;25.60;;;4.47;;
18443;SDS011;9350;53.176;8.194;2023-04-25T00:31:35;20.52;;;4.38;;
18443;SDS011;9350;53.176;8.194;2023-04-25T00:34:02;17.65;;;4.15;;
18443;SDS011;9350;53.176;8.194;2023-04-25T00:36:29;24.45;;;3.95;;
18443;SDS011;9350;53.176;8.194;2023-04-25T00:38:56;22.52;;;3.85;;
18443;SDS011;9350;53.176;8.194;2023-04-25T00:41:25;21.30;;;4.18;;
18443;SDS011;9350;53.176;8.194;2023-04-25T00:43:52;17.98;;;3.67;;
18443;SDS011;9350;53.176;8.194;2023-04-25T00:46:20;17.63;;;3.55;;
18443;SDS011;9350;53.176;8.194;2023-04-25T00:48:47;28.92;;;3.85;;
18443;SDS011;9350;53.176;8.194;2023-04-25T00:51:16;17.25;;;4.25;;
18443;SDS011;9350;53.176;8.194;2023-04-25T00:53:45;23.15;;;4.22;;
18443;SDS011;9350;53.176;8.194;2023-04-25T00:56:13;31.02;;;4.57;;
18443;SDS011;9350;53.176;8.194;2023-04-25T00:58:41;22.45;;;3.70;;
18443;SDS011;9350;53.176;8.194;2023-04-25T01:01:08;26.27;;;4.40;;
18443;SDS011;9350;53.176;8.194;2023-04-25T01:03:37;25.65;;;3.63;;
18443;SDS011;9350;53.176;8.194;2023-04-25T01:06:06;23.10;;;4.00;;
18443;SDS011;9350;53.176;8.194;2023-04-25T01:08:34;22.10;;;4.10;;
18443;SDS011;9350;53.176;8.194;2023-04-25T01:11:01;16.48;;;3.60;;
18443;SDS011;9350;53.176;8.194;2023-04-25T01:13:28;15.20;;;3.40;;
18443;SDS011;9350;53.176;8.194;2023-04-25T01:15:58;21.83;;;4.07;;
18443;SDS011;9350;53.176;8.194;2023-04-25T01:18:25;19.15;;;4.00;;
18443;SDS011;9350;53.176;8.194;2023-04-25T01:20:52;25.80;;;4.22;;
18443;SDS011;9350;53.176;8.194;2023-04-25T01:23:21;24.67;;;4.53;;
18443;SDS011;9350;53.176;8.194;2023-04-25T01:25:48;17.13;;;4.15;;
18443;SDS011;9350;53.176;8.194;2023-04-25T01:28:16;33.17;;;4.03;;
18443;SDS011;9350;53.176;8.194;2023-04-25T01:30:43;20.52;;;3.33;;
18443;SDS011;9350;53.176;8.194;2023-04-25T01:33:09;24.58;;;4.47;;
18443;SDS011;9350;53.176;8.194;2023-04-25T01:35:37;17.38;;;4.03;;
18443;SDS011;9350;53.176;8.194;2023-04-25T01:38:06;17.05;;;3.47;;
18443;SDS011;9350;53.176;8.194;2023-04-25T01:40:34;23.75;;;3.78;;
18443;SDS011;9350;53.176;8.194;2023-04-25T01:43:05;22.17;;;3.88;;
18443;SDS011;9350;53.176;8.194;2023-04-25T01:45:33;15.93;;;3.63;;
18443;SDS011;9350;53.176;8.194;2023-04-25T01:48:01;21.02;;;3.72;;
18443;SDS011;9350;53.176;8.194;2023-04-25T01:50:28;18.13;;;3.38;;
18443;SDS011;9350;53.176;8.194;2023-04-25T01:52:55;20.00;;;3.53;;
18443;SDS011;9350;53.176;8.194;2023-04-25T01:55:22;15.75;;;3.50;;
18443;SDS011;9350;53.176;8.194;2023-04-25T01:57:50;21.25;;;4.22;;
18443;SDS011;9350;53.176;8.194;2023-04-25T02:00:17;24.33;;;3.63;;
18443;SDS011;9350;53.176;8.194;2023-04-25T02:02:44;18.10;;;3.90;;
18443;SDS011;9350;53.176;8.194;2023-04-25T02:05:11;17.00;;;3.30;;
18443;SDS011;9350;53.176;8.194;2023-04-25T02:07:38;28.73;;;4.35;;
18443;SDS011;9350;53.176;8.194;2023-04-25T02:10:05;24.58;;;3.63;;
18443;SDS011;9350;53.176;8.194;2023-04-25T02:12:32;19.50;;;3.75;;
18443;SDS011;9350;53.176;8.194;2023-04-25T02:15:00;11.30;;;3.17;;
18443;SDS011;9350;53.176;8.194;2023-04-25T02:17:27;17.60;;;3.90;;
18443;SDS011;9350;53.176;8.194;2023-04-25T02:19:54;24.20;;;4.20;;
18443;SDS011;9350;53.176;8.194;2023-04-25T02:22:21;20.67;;;3.75;;
18443;SDS011;9350;53.176;8.194;2023-04-25T02:24:47;21.52;;;3.67;;
18443;SDS011;9350;53.176;8.194;2023-04-25T02:27:14;22.92;;;3.60;;
18443;SDS011;9350;53.176;8.194;2023-04-25T02:29:41;17.80;;;4.00;;
18443;SDS011;9350;53.176;8.194;2023-04-25T02:32:09;18.55;;;3.78;;
18443;SDS011;9350;53.176;8.194;2023-04-25T02:34:36;16.15;;;3.40;;
18443;SDS011;9350;53.176;8.194;2023-04-25T02:37:03;28.27;;;4.03;;
18443;SDS011;9350;53.176;8.194;2023-04-25T02:39:30;26.48;;;3.72;;
18443;SDS011;9350;53.176;8.194;2023-04-25T02:41:56;26.38;;;3.47;;
18443;SDS011;9350;53.176;8.194;2023-04-25T02:44:23;18.55;;;3.05;;
18443;SDS011;9350;53.176;8.194;2023-04-25T02:46:50;15.93;;;3.20;;
18443;SDS011;9350;53.176;8.194;2023-04-25T02:49:18;14.68;;;3.00;;
18443;SDS011;9350;53.176;8.194;2023-04-25T02:51:45;14.63;;;2.90;;
18443;SDS011;9350;53.176;8.194;2023-04-25T02:54:11;18.17;;;3.45;;
18443;SDS011;9350;53.176;8.194;2023-04-25T02:56:38;12.65;;;3.38;;
18443;SDS011;9350;53.176;8.194;2023-04-25T02:59:05;21.50;;;3.83;;
18443;SDS011;9350;53.176;8.194;2023-04-25T03:01:32;19.67;;;4.43;;
18443;SDS011;9350;53.176;8.194;2023-04-25T03:03:59;15.10;;;3.03;;
18443;SDS011;9350;53.176;8.194;2023-04-25T03:06:27;14.13;;;3.10;;
18443;SDS011;9350;53.176;8.194;2023-04-25T03:08:53;21.80;;;3.53;;
18443;SDS011;9350;53.176;8.194;2023-04-25T03:11:20;20.17;;;3.35;;
18443;SDS011;9350;53.176;8.194;2023-04-25T03:13:47;19.23;;;3.35;;
18443;SDS011;9350;53.176;8.194;2023-04-25T03:16:14;22.58;;;3.47;;
18443;SDS011;9350;53.176;8.194;2023-04-25T03:18:41;14.07;;;3.13;;
18443;SDS011;9350;53.176;8.194;2023-04-25T03:21:07;18.50;;;3.35;;
18443;SDS011;9350;53.176;8.194;2023-04-25T03:23:35;11.38;;;2.45;;
18443;SDS011;9350;53.176;8.194;2023-04-25T03:26:03;16.50;;;2.95;;
18443;SDS011;9350;53.176;8.194;2023-04-25T03:28:30;15.85;;;3.15;;
18443;SDS011;9350;53.176;8.194;2023-04-25T03:30:56;13.45;;;3.20;;
18443;SDS011;9350;53.176;8.194;2023-04-25T03:33:23;24.65;;;2.88;;
18443;SDS011;9350;53.176;8.194;2023-04-25T03:35:50;17.90;;;2.70;;
18443;SDS011;9350;53.176;8.194;2023-04-25T03:38:17;12.32;;;2.50;;
18443;SDS011;9350;53.176;8.194;2023-04-25T03:40:46;12.45;;;2.83;;
18443;SDS011;9350;53.176;8.194;2023-04-25T03:43:12;18.33;;;2.92;;
18443;SDS011;9350;53.176;8.194;2023-04-25T03:45:40;21.98;;;3.75;;
18443;SDS011;9350;53.176;8.194;2023-04-25T03:48:06;21.48;;;2.95;;
18443;SDS011;9350;53.176;8.194;2023-04-25T03:50:33;12.25;;;2.80;;
18443;SDS011;9350;53.176;8.194;2023-04-25T03:53:00;14.20;;;2.67;;
18443;SDS011;9350;53.176;8.194;2023-04-25T03:55:27;13.65;;;2.60;;
18443;SDS011;9350;53.176;8.194;2023-04-25T03:57:55;13.32;;;2.65;;
18443;SDS011;9350;53.176;8.194;2023-04-25T04:00:22;17.23;;;4.28;;
18443;SDS011;9350;53.176;8.194;2023-04-25T04:02:50;15.45;;;2.78;;
18443;SDS011;9350;53.176;8.194;2023-04-25T04:05:16;13.27;;;2.72;;
18443;SDS011;9350;53.176;8.194;2023-04-25T04:07:43;11.80;;;2.92;;
18443;SDS011;9350;53.176;8.194;2023-04-25T04:10:10;16.23;;;3.05;;
18443;SDS011;9350;53.176;8.194;2023-04-25T04:12:37;12.88;;;2.63;;
18443;SDS011;9350;53.176;8.194;2023-04-25T04:15:06;14.07;;;2.80;;
18443;SDS011;9350;53.176;8.194;2023-04-25T04:17:33;13.25;;;2.88;;
18443;SDS011;9350;53.176;8.194;2023-04-25T04:20:00;12.23;;;2.55;;
18443;SDS011;9350;53.176;8.194;2023-04-25T04:22:28;12.02;;;2.50;;
18443;SDS011;9350;53.176;8.194;2023-04-25T04:24:55;15.25;;;2.70;;
18443;SDS011;9350;53.176;8.194;2023-04-25T04:27:22;10.95;;;2.55;;
18443;SDS011;9350;53.176;8.194;2023-04-25T04:29:49;14.55;;;2.70;;
18443;SDS011;9350;53.176;8.194;2023-04-25T04:32:18;12.50;;;2.25;;
18443;SDS011;9350;53.176;8.194;2023-04-25T04:34:45;10.93;;;2.40;;
18443;SDS011;9350;53.176;8.194;2023-04-25T04:37:13;9.30;;;2.17;;
18443;SDS011;9350;53.176;8.194;2023-04-25T04:39:40;12.93;;;2.38;;
18443;SDS011;9350;53.176;8.194;2023-04-25T04:42:07;10.48;;;2.45;;
18443;SDS011;9350;53.176;8.194;2023-04-25T04:44:33;16.42;;;2.45;;
18443;SDS011;9350;53.176;8.194;2023-04-25T04:47:01;9.88;;;1.90;;
18443;SDS011;9350;53.176;8.194;2023-04-25T04:49:32;15.05;;;2.33;;
18443;SDS011;9350;53.176;8.194;2023-04-25T04:51:59;6.60;;;2.03;;
18443;SDS011;9350;53.176;8.194;2023-04-25T04:54:26;9.60;;;2.20;;
18443;SDS011;9350;53.176;8.194;2023-04-25T04:56:53;9.85;;;2.00;;
18443;SDS011;9350;53.176;8.194;2023-04-25T04:59:20;7.80;;;2.38;;
18443;SDS011;9350;53.176;8.194;2023-04-25T05:01:46;7.57;;;2.03;;
18443;SDS011;9350;53.176;8.194;2023-04-25T05:04:13;13.77;;;2.20;;
18443;SDS011;9350;53.176;8.194;2023-04-25T05:06:41;7.18;;;1.85;;
18443;SDS011;9350;53.176;8.194;2023-04-25T05:09:09;10.18;;;2.60;;
18443;SDS011;9350;53.176;8.194;2023-04-25T05:11:35;9.38;;;2.53;;
18443;SDS011;9350;53.176;8.194;2023-04-25T05:14:02;11.70;;;2.30;;
18443;SDS011;9350;53.176;8.194;2023-04-25T05:16:29;10.20;;;2.10;;
18443;SDS011;9350;53.176;8.194;2023-04-25T05:18:56;15.50;;;2.22;;
18443;SDS011;9350;53.176;8.194;2023-04-25T05:21:23;11.00;;;2.72;;
18443;SDS011;9350;53.176;8.194;2023-04-25T05:23:51;8.65;;;2.50;;
18443;SDS011;9350;53.176;8.194;2023-04-25T05:26:18;13.05;;;2.70;;
18443;SDS011;9350;53.176;8.194;2023-04-25T05:28:45;16.60;;;2.58;;
18443;SDS011;9350;53.176;8.194;2023-04-25T05:31:13;13.63;;;2.28;;
18443;SDS011;9350;53.176;8.194;2023-04-25T05:33:40;9.90;;;2.03;;
18443;SDS011;9350;53.176;8.194;2023-04-25T05:36:07;15.52;;;2.15;;
18443;SDS011;9350;53.176;8.194;2023-04-25T05:38:34;8.35;;;3.08;;
18443;SDS011;9350;53.176;8.194;2023-04-25T05:41:02;8.23;;;2.10;;
18443;SDS011;9350;53.176;8.194;2023-04-25T05:43:29;9.85;;;1.90;;
18443;SDS011;9350;53.176;8.194;2023-04-25T05:45:55;9.38;;;2.30;;
18443;SDS011;9350;53.176;8.194;2023-04-25T05:48:22;9.32;;;1.83;;
18443;SDS011;9350;53.176;8.194;2023-04-25T05:50:49;14.32;;;2.50;;
18443;SDS011;9350;53.176;8.194;2023-04-25T05:53:16;9.50;;;1.80;;
18443;SDS011;9350;53.176;8.194;2023-04-25T05:55:43;9.20;;;2.00;;
18443;SDS011;9350;53.176;8.194;2023-04-25T05:58:11;8.95;;;2.67;;
18443;SDS011;9350;53.176;8.194;2023-04-25T06:00:38;9.82;;;2.50;;
18443;SDS011;9350;53.176;8.194;2023-04-25T06:03:06;7.72;;;2.08;;
18443;SDS011;9350;53.176;8.194;2023-04-25T06:05:34;9.35;;;1.80;;
18443;SDS011;9350;53.176;8.194;2023-04-25T06:08:01;9.70;;;2.10;;
18443;SDS011;9350;53.176;8.194;2023-04-25T06:10:28;9.52;;;2.13;;
18443;SDS011;9350;53.176;8.194;2023-04-25T06:12:55;11.35;;;2.13;;
18443;SDS011;9350;53.176;8.194;2023-04-25T06:15:23;6.40;;;1.92;;
18443;SDS011;9350;53.176;8.194;2023-04-25T06:17:49;8.30;;;1.88;;
18443;SDS011;9350;53.176;8.194;2023-04-25T06:20:16;8.52;;;2.08;;
18443;SDS011;9350;53.176;8.194;2023-04-25T06:22:44;10.85;;;2.03;;
18443;SDS011;9350;53.176;8.194;2023-04-25T06:25:11;6.80;;;1.98;;
18443;SDS011;9350;53.176;8.194;2023-04-25T06:27:38;8.70;;;2.20;;
18443;SDS011;9350;53.176;8.194;2023-04-25T06:30:05;6.88;;;2.03;;
18443;SDS011;9350;53.176;8.194;2023-04-25T06:32:34;9.65;;;2.17;;
18443;SDS011;9350;53.176;8.194;2023-04-25T06:35:01;12.65;;;2.47;;
18443;SDS011;9350;53.176;8.194;2023-04-25T06:37:28;13.15;;;2.28;;
18443;SDS011;9350;53.176;8.194;2023-04-25T06:39:55;11.48;;;2.15;;
18443;SDS011;9350;53.176;8.194;2023-04-25T06:42:22;7.93;;;2.20;;
18443;SDS011;9350;53.176;8.194;2023-04-25T06:44:48;14.52;;;2.30;;
18443;SDS011;9350;53.176;8.194;2023-04-25T06:47:15;14.15;;;2.53;;
18443;SDS011;9350;53.176;8.194;2023-04-25T06:49:43;10.02;;;2.33;;
18443;SDS011;9350;53.176;8.194;2023-04-25T06:52:10;10.25;;;2.05;;
18443;SDS011;9350;53.176;8.194;2023-04-25T06:54:36;12.30;;;2.28;;
18443;SDS011;9350;53.176;8.194;2023-04-25T06:57:03;18.33;;;2.00;;
18443;SDS011;9350;53.176;8.194;2023-04-25T06:59:30;12.02;;;2.25;;
18443;SDS011;9350;53.176;8.194;2023-04-25T07:01:57;11.55;;;1.85;;
18443;SDS011;9350;53.176;8.194;2023-04-25T07:04:24;8.15;;;1.88;;
18443;SDS011;9350;53.176;8.194;2023-04-25T07:06:52;11.77;;;2.03;;
18443;SDS011;9350;53.176;8.194;2023-04-25T07:09:19;10.98;;;1.95;;
18443;SDS011;9350;53.176;8.194;2023-04-25T07:11:46;8.73;;;2.03;;
18443;SDS011;9350;53.176;8.194;2023-04-25T07:14:13;15.20;;;2.60;;
18443;SDS011;9350;53.176;8.194;2023-04-25T07:16:40;10.82;;;1.95;;
18443;SDS011;9350;53.176;8.194;2023-04-25T07:19:06;11.50;;;2.28;;
18443;SDS011;9350;53.176;8.194;2023-04-25T07:21:33;10.77;;;2.05;;
18443;SDS011;9350;53.176;8.194;2023-04-25T07:24:02;7.35;;;1.90;;
18443;SDS011;9350;53.176;8.194;2023-04-25T07:26:29;7.88;;;1.42;;
18443;SDS011;9350;53.176;8.194;2023-04-25T07:28:56;9.57;;;1.90;;
18443;SDS011;9350;53.176;8.194;2023-04-25T07:31:23;8.48;;;1.63;;
18443;SDS011;9350;53.176;8.194;2023-04-25T07:33:50;8.02;;;1.98;;
18443;SDS011;9350;53.176;8.194;2023-04-25T07:36:17;7.10;;;1.55;;
18443;SDS011;9350;53.176;8.194;2023-04-25T07:38:43;8.07;;;1.67;;
18443;SDS011;9350;53.176;8.194;2023-04-25T07:41:12;15.50;;;1.70;;
18443;SDS011;9350;53.176;8.194;2023-04-25T07:43:39;12.15;;;1.83;;
18443;SDS011;9350;53.176;8.194;2023-04-25T07:46:05;6.10;;;1.50;;
18443;SDS011;9350;53.176;8.194;2023-04-25T07:48:32;3.95;;;1.80;;
18443;SDS011;9350;53.176;8.194;2023-04-25T07:50:59;6.38;;;1.55;;
18443;SDS011;9350;53.176;8.194;2023-04-25T07:53:25;2.28;;;1.10;;
18443;SDS011;9350;53.176;8.194;2023-04-25T07:55:52;3.28;;;1.00;;
18443;SDS011;9350;53.176;8.194;2023-04-25T07:58:20;2.72;;;1.13;;
18443;SDS011;9350;53.176;8.194;2023-04-25T08:00:47;4.20;;;1.27;;
18443;SDS011;9350;53.176;8.194;2023-04-25T08:03:15;3.83;;;1.15;;
18443;SDS011;9350;53.176;8.194;2023-04-25T08:05:42;4.68;;;1.20;;
18443;SDS011;9350;53.176;8.194;2023-04-25T08:08:10;3.42;;;1.05;;
18443;SDS011;9350;53.176;8.194;2023-04-25T08:10:37;1.42;;;0.93;;
18443;SDS011;9350;53.176;8.194;2023-04-25T08:13:04;4.03;;;1.52;;
18443;SDS011;9350;53.176;8.194;2023-04-25T08:15:32;6.38;;;1.10;;
18443;SDS011;9350;53.176;8.194;2023-04-25T08:17:59;5.55;;;1.45;;
18443;SDS011;9350;53.176;8.194;2023-04-25T08:20:25;5.13;;;1.50;;
18443;SDS011;9350;53.176;8.194;2023-04-25T08:22:52;5.97;;;1.52;;
18443;SDS011;9350;53.176;8.194;2023-04-25T08:25:19;7.03;;;1.52;;
18443;SDS011;9350;53.176;8.194;2023-04-25T08:27:46;8.65;;;1.55;;
18443;SDS011;9350;53.176;8.194;2023-04-25T08:30:13;6.43;;;1.80;;
18443;SDS011;9350;53.176;8.194;2023-04-25T08:32:41;7.97;;;1.42;;
18443;SDS011;9350;53.176;8.194;2023-04-25T08:35:08;6.35;;;1.50;;
18443;SDS011;9350;53.176;8.194;2023-04-25T08:37:35;8.25;;;1.55;;
18443;SDS011;9350;53.176;8.194;2023-04-25T08:40:03;4.60;;;1.17;;
18443;SDS011;9350;53.176;8.194;2023-04-25T08:42:32;10.15;;;1.65;;
18443;SDS011;9350;53.176;8.194;2023-04-25T08:45:00;7.22;;;1.48;;
18443;SDS011;9350;53.176;8.194;2023-04-25T08:47:27;4.40;;;1.30;;
18443;SDS011;9350;53.176;8.194;2023-04-25T08:50:00;2.83;;;1.40;;
18443;SDS011;9350;53.176;8.194;2023-04-25T08:52:30;6.63;;;1.58;;
18443;SDS011;9350;53.176;8.194;2023-04-25T08:55:01;8.85;;;1.80;;
18443;SDS011;9350;53.176;8.194;2023-04-25T08:57:29;5.55;;;1.52;;
18443;SDS011;9350;53.176;8.194;2023-04-25T08:59:57;8.15;;;1.88;;
18443;SDS011;9350;53.176;8.194;2023-04-25T09:02:24;3.00;;;1.60;;
18443;SDS011;9350;53.176;8.194;2023-04-25T09:04:51;5.78;;;1.30;;
18443;SDS011;9350;53.176;8.194;2023-04-25T09:07:22;8.88;;;1.38;;
18443;SDS011;9350;53.176;8.194;2023-04-25T09:09:50;7.82;;;1.40;;
18443;SDS011;9350;53.176;8.194;2023-04-25T09:12:18;9.10;;;1.70;;
18443;SDS011;9350;53.176;8.194;2023-04-25T09:14:54;5.53;;;1.52;;
18443;SDS011;9350;53.176;8.194;2023-04-25T09:17:29;4.15;;;1.60;;
18443;SDS011;9350;53.176;8.194;2023-04-25T09:19:55;9.98;;;1.33;;
18443;SDS011;9350;53.176;8.194;2023-04-25T09:22:33;11.30;;;1.45;;
18443;SDS011;9350;53.176;8.194;2023-04-25T09:25:02;5.68;;;1.60;;
18443;SDS011;9350;53.176;8.194;2023-04-25T09:27:30;5.05;;;1.23;;
18443;SDS011;9350;53.176;8.194;2023-04-25T09:29:57;10.18;;;1.50;;
18443;SDS011;9350;53.176;8.194;2023-04-25T09:32:25;8.43;;;1.95;;
18443;SDS011;9350;53.176;8.194;2023-04-25T09:34:52;4.28;;;0.90;;
18443;SDS011;9350;53.176;8.194;2023-04-25T09:37:20;3.08;;;0.90;;
18443;SDS011;9350;53.176;8.194;2023-04-25T09:39:50;10.20;;;1.40;;
18443;SDS011;9350;53.176;8.194;2023-04-25T09:42:21;4.63;;;1.30;;
18443;SDS011;9350;53.176;8.194;2023-04-25T09:44:49;5.13;;;1.23;;
18443;SDS011;9350;53.176;8.194;2023-04-25T09:47:18;5.43;;;1.50;;
18443;SDS011;9350;53.176;8.194;2023-04-25T09:49:47;5.13;;;1.25;;
18443;SDS011;9350;53.176;8.194;2023-04-25T09:52:15;3.03;;;1.10;;
18443;SDS011;9350;53.176;8.194;2023-04-25T09:54:44;3.22;;;1.33;;
18443;SDS011;9350;53.176;8.194;2023-04-25T09:57:15;5.57;;;1.73;;
18443;SDS011;9350;53.176;8.194;2023-04-25T09:59:43;5.03;;;1.17;;
18443;SDS011;9350;53.176;8.194;2023-04-25T10:02:11;9.27;;;1.20;;
18443;SDS011;9350;53.176;8.194;2023-04-25T10:04:39;4.57;;;1.20;;
18443;SDS011;9350;53.176;8.194;2023-04-25T10:07:08;7.00;;;1.42;;
18443;SDS011;9350;53.176;8.194;2023-04-25T10:09:36;2.30;;;0.93;;
18443;SDS011;9350;53.176;8.194;2023-04-25T10:12:04;3.90;;;1.35;;
18443;SDS011;9350;53.176;8.194;2023-04-25T10:14:34;3.65;;;1.08;;
18443;SDS011;9350;53.176;8.194;2023-04-25T10:17:01;2.50;;;1.17;;
18443;SDS011;9350;53.176;8.194;2023-04-25T10:19:28;8.18;;;1.40;;
18443;SDS011;9350;53.176;8.194;2023-04-25T10:21:56;7.65;;;1.63;;
18443;SDS011;9350;53.176;8.194;2023-04-25T10:24:29;4.45;;;1.33;;
18443;SDS011;9350;53.176;8.194;2023-04-25T10:26:56;6.70;;;1.48;;
18443;SDS011;9350;53.176;8.194;2023-04-25T10:29:24;14.93;;;1.70;;
18443;SDS011;9350;53.176;8.194;2023-04-25T10:31:53;8.38;;;1.70;;
18443;SDS011;9350;53.176;8.194;2023-04-25T10:34:23;6.78;;;1.58;;
18443;SDS011;9350;53.176;8.194;2023-04-25T10:36:59;8.98;;;1.60;;
18443;SDS011;9350;53.176;8.194;2023-04-25T10:39:28;4.05;;;1.35;;
18443;SDS011;9350;53.176;8.194;2023-04-25T10:41:55;6.57;;;1.60;;
18443;SDS011;9350;53.176;8.194;2023-04-25T10:44:26;6.18;;;1.40;;
18443;SDS011;9350;53.176;8.194;2023-04-25T10:46:55;4.95;;;1.45;;
18443;SDS011;9350;53.176;8.194;2023-04-25T10:49:33;5.72;;;1.50;;
18443;SDS011;9350;53.176;8.194;2023-04-25T10:54:51;5.47;;;1.40;;
18443;SDS011;9350;53.176;8.194;2023-04-25T10:57:28;8.38;;;1.27;;
18443;SDS011;9350;53.176;8.194;2023-04-25T11:00:00;5.10;;;1.20;;
18443;SDS011;9350;53.176;8.194;2023-04-25T11:02:32;5.47;;;1.33;;
18443;SDS011;9350;53.176;8.194;2023-04-25T11:05:03;5.95;;;1.30;;
18443;SDS011;9350;53.176;8.194;2023-04-25T11:07:33;7.95;;;1.80;;
18443;SDS011;9350;53.176;8.194;2023-04-25T11:10:03;4.70;;;1.20;;
18443;SDS011;9350;53.176;8.194;2023-04-25T11:12:31;7.53;;;1.40;;
18443;SDS011;9350;53.176;8.194;2023-04-25T11:14:59;5.65;;;1.42;;
18443;SDS011;9350;53.176;8.194;2023-04-25T11:17:27;4.72;;;1.13;;
18443;SDS011;9350;53.176;8.194;2023-04-25T11:19:55;7.82;;;1.60;;
18443;SDS011;9350;53.176;8.194;2023-04-25T11:22:22;5.85;;;1.40;;
18443;SDS011;9350;53.176;8.194;2023-04-25T11:24:49;5.97;;;1.38;;
18443;SDS011;9350;53.176;8.194;2023-04-25T11:27:16;7.65;;;1.45;;
18443;SDS011;9350;53.176;8.194;2023-04-25T11:29:43;6.30;;;1.52;;
18443;SDS011;9350;53.176;8.194;2023-04-25T11:32:12;7.28;;;1.42;;
18443;SDS011;9350;53.176;8.194;2023-04-25T11:34:42;5.22;;;1.60;;
18443;SDS011;9350;53.176;8.194;2023-04-25T11:37:11;2.50;;;1.10;;
18443;SDS011;9350;53.176;8.194;2023-04-25T11:39:39;5.43;;;1.20;;
18443;SDS011;9350;53.176;8.194;2023-04-25T11:42:10;5.53;;;1.40;;
18443;SDS011;9350;53.176;8.194;2023-04-25T11:44:37;9.52;;;1.60;;
18443;SDS011;9350;53.176;8.194;2023-04-25T11:47:05;5.75;;;1.38;;
18443;SDS011;9350;53.176;8.194;2023-04-25T11:49:32;7.03;;;1.65;;
18443;SDS011;9350;53.176;8.194;2023-04-25T11:52:00;8.65;;;1.67;;
18443;SDS011;9350;53.176;8.194;2023-04-25T11:54:28;8.75;;;1.77;;
18443;SDS011;9350;53.176;8.194;2023-04-25T11:56:55;11.10;;;2.30;;
18443;SDS011;9350;53.176;8.194;2023-04-25T11:59:23;7.43;;;1.60;;
18443;SDS011;9350;53.176;8.194;2023-04-25T12:01:51;5.97;;;1.33;;
18443;SDS011;9350;53.176;8.194;2023-04-25T12:04:18;7.68;;;1.58;;
18443;SDS011;9350;53.176;8.194;2023-04-25T12:06:47;6.25;;;1.40;;
18443;SDS011;9350;53.176;8.194;2023-04-25T12:09:15;6.95;;;1.17;;
18443;SDS011;9350;53.176;8.194;2023-04-25T12:11:45;4.22;;;1.40;;
18443;SDS011;9350;53.176;8.194;2023-04-25T12:14:20;4.65;;;1.40;;
18443;SDS011;9350;53.176;8.194;2023-04-25T12:16:48;4.85;;;1.20;;
18443;SDS011;9350;53.176;8.194;2023-04-25T12:19:16;10.05;;;1.50;;
18443;SDS011;9350;53.176;8.194;2023-04-25T12:21:44;3.13;;;1.42;;
18443;SDS011;9350;53.176;8.194;2023-04-25T12:24:11;3.03;;;1.23;;
18443;SDS011;9350;53.176;8.194;2023-04-25T12:26:47;4.53;;;1.23;;
18443;SDS011;9350;53.176;8.194;2023-04-25T12:29:18;3.38;;;1.10;;
18443;SDS011;9350;53.176;8.194;2023-04-25T12:31:46;2.63;;;1.10;;
18443;SDS011;9350;53.176;8.194;2023-04-25T12:34:13;4.15;;;1.10;;
18443;SDS011;9350;53.176;8.194;2023-04-25T12:36:40;4.63;;;1.73;;
18443;SDS011;9350;53.176;8.194;2023-04-25T12:39:07;5.28;;;1.35;;
18443;SDS011;9350;53.176;8.194;2023-04-25T12:41:34;5.55;;;1.88;;
18443;SDS011;9350;53.176;8.194;2023-04-25T12:44:02;5.68;;;1.27;;
18443;SDS011;9350;53.176;8.194;2023-04-25T12:46:28;2.03;;;0.98;;
18443;SDS011;9350;53.176;8.194;2023-04-25T12:48:55;2.83;;;0.95;;
18443;SDS011;9350;53.176;8.194;2023-04-25T12:51:22;2.28;;;1.20;;
18443;SDS011;9350;53.176;8.194;2023-04-25T12:53:50;4.07;;;1.02;;
18443;SDS011;9350;53.176;8.194;2023-04-25T12:56:17;2.50;;;1.08;;
18443;SDS011;9350;53.176;8.194;2023-04-25T12:58:44;2.80;;;0.82;;
18443;SDS011;9350;53.176;8.194;2023-04-25T13:01:14;2.58;;;1.10;;
18443;SDS011;9350;53.176;8.194;2023-04-25T13:03:41;2.70;;;1.00;;
18443;SDS011;9350;53.176;8.194;2023-04-25T13:06:08;2.67;;;1.17;;
18443;SDS011;9350;53.176;8.194;2023-04-25T13:08:35;7.57;;;1.13;;
18443;SDS011;9350;53.176;8.194;2023-04-25T13:11:03;4.70;;;1.10;;
18443;SDS011;9350;53.176;8.194;2023-04-25T13:13:30;2.67;;;1.25;;
18443;SDS011;9350;53.176;8.194;2023-04-25T13:15:59;4.20;;;1.10;;
18443;SDS011;9350;53.176;8.194;2023-04-25T13:18:28;2.35;;;1.30;;
18443;SDS011;9350;53.176;8.194;2023-04-25T13:20:55;2.95;;;1.25;;
18443;SDS011;9350;53.176;8.194;2023-04-25T13:23:22;7.70;;;1.20;;
18443;SDS011;9350;53.176;8.194;2023-04-25T13:25:51;6.50;;;1.50;;
18443;SDS011;9350;53.176;8.194;2023-04-25T13:28:18;2.55;;;1.13;;
18443;SDS011;9350;53.176;8.194;2023-04-25T13:30:44;4.07;;;1.27;;
18443;SDS011;9350;53.176;8.194;2023-04-25T13:33:12;1.15;;;0.90;;
18443;SDS011;9350;53.176;8.194;2023-04-25T13:35:41;5.55;;;1.40;;
18443;SDS011;9350;53.176;8.194;2023-04-25T13:38:08;4.28;;;1.63;;
18443;SDS011;9350;53.176;8.194;2023-04-25T13:40:35;5.65;;;1.55;;
18443;SDS011;9350;53.176;8.194;2023-04-25T13:43:01;7.50;;;1.38;;
18443;SDS011;9350;53.176;8.194;2023-04-25T13:45:28;3.85;;;1.23;;
18443;SDS011;9350;53.176;8.194;2023-04-25T13:47:55;5.40;;;1.60;;
18443;SDS011;9350;53.176;8.194;2023-04-25T13:50:22;4.13;;;1.25;;
18443;SDS011;9350;53.176;8.194;2023-04-25T13:52:50;8.68;;;1.30;;
18443;SDS011;9350;53.176;8.194;2023-04-25T13:55:17;3.83;;;1.10;;
18443;SDS011;9350;53.176;8.194;2023-04-25T13:57:44;2.55;;;1.25;;
18443;SDS011;9350;53.176;8.194;2023-04-25T14:00:11;5.07;;;1.95;;
18443;SDS011;9350;53.176;8.194;2023-04-25T14:02:40;4.25;;;1.40;;
18443;SDS011;9350;53.176;8.194;2023-04-25T14:05:07;2.53;;;1.23;;
18443;SDS011;9350;53.176;8.194;2023-04-25T14:07:34;3.72;;;1.20;;
18443;SDS011;9350;53.176;8.194;2023-04-25T14:10:02;5.95;;;1.48;;
18443;SDS011;9350;53.176;8.194;2023-04-25T14:12:30;4.85;;;1.40;;
18443;SDS011;9350;53.176;8.194;2023-04-25T14:14:57;5.50;;;1.60;;
18443;SDS011;9350;53.176;8.194;2023-04-25T14:17:23;7.68;;;1.40;;
18443;SDS011;9350;53.176;8.194;2023-04-25T14:19:50;6.75;;;1.50;;
18443;SDS011;9350;53.176;8.194;2023-04-25T14:22:17;10.85;;;1.55;;
18443;SDS011;9350;53.176;8.194;2023-04-25T14:24:44;10.48;;;1.50;;
18443;SDS011;9350;53.176;8.194;2023-04-25T14:27:12;5.15;;;1.30;;
18443;SDS011;9350;53.176;8.194;2023-04-25T14:29:39;9.68;;;1.73;;
18443;SDS011;9350;53.176;8.194;2023-04-25T14:32:06;5.57;;;1.60;;
18443;SDS011;9350;53.176;8.194;2023-04-25T14:34:33;7.38;;;1.70;;
18443;SDS011;9350;53.176;8.194;2023-04-25T14:36:59;5.30;;;1.40;;
18443;SDS011;9350;53.176;8.194;2023-04-25T14:39:26;6.25;;;1.48;;
18443;SDS011;9350;53.176;8.194;2023-04-25T14:41:53;6.55;;;1.83;;
18443;SDS011;9350;53.176;8.194;2023-04-25T14:44:22;5.68;;;1.33;;
18443;SDS011;9350;53.176;8.194;2023-04-25T14:46:49;7.38;;;1.48;;
18443;SDS011;9350;53.176;8.194;2023-04-25T14:49:16;6.20;;;1.55;;
18443;SDS011;9350;53.176;8.194;2023-04-25T14:51:43;9.57;;;1.63;;
18443;SDS011;9350;53.176;8.194;2023-04-25T14:54:10;4.97;;;1.55;;
18443;SDS011;9350;53.176;8.194;2023-04-25T14:56:37;3.42;;;1.60;;
18443;SDS011;9350;53.176;8.194;2023-04-25T14:59:03;4.50;;;1.33;;
18443;SDS011;9350;53.176;8.194;2023-04-25T15:01:32;3.70;;;1.48;;